Time;durP1;ratioP1;P1;durP2;ratioP2;P2;SDS_P1;SDS_P2;PMS_P1;PMS_P2;Temp;Humidity;BMP_temperature;BMP_pressure;BME280_temperature;BME280_humidity;BME280_pressure;Samples;Min_cycle;Max_cycle;Signal;HPM_P1;HPM_P2
2022/07/02 00:02:23;;;;;;;0.43;0.33;;;18.40;98.90;19.80;97285.00;;;;5034879;28;20193;-66
2022/07/02 00:05:14;;;;;;;0.40;0.40;;;18.30;99.30;19.60;97289.00;;;;5028937;28;20331;-66
2022/07/02 00:08:05;;;;;;;0.50;0.50;;;18.30;99.00;19.70;97295.00;;;;5029639;28;20212;-66
2022/07/02 00:10:56;;;;;;;0.40;0.40;;;18.20;99.20;19.70;97304.00;;;;5031154;28;20256;-66
2022/07/02 00:13:45;;;;;;;0.60;0.60;;;18.20;99.40;19.50;97301.00;;;;5029350;28;20201;-66
2022/07/02 00:16:34;;;;;;;0.50;0.50;;;18.10;99.60;19.60;97310.00;;;;5036179;28;20209;-66
2022/07/02 00:19:24;;;;;;;1.23;0.50;;;18.10;99.90;19.70;97302.00;;;;5045139;28;20789;-66
2022/07/02 00:22:15;;;;;;;0.53;0.53;;;18.10;99.90;19.50;97298.00;;;;5038188;28;20209;-66
2022/07/02 00:25:04;;;;;;;0.70;0.50;;;18.00;99.90;19.50;97306.00;;;;5036215;28;20223;-66
2022/07/02 00:27:53;;;;;;;0.47;0.47;;;18.00;99.70;19.60;97309.00;;;;5039461;28;20235;-66
2022/07/02 00:30:47;;;;;;;0.40;0.40;;;18.00;99.70;19.40;97308.00;;;;5035395;28;20237;-66
2022/07/02 00:33:36;;;;;;;0.57;0.43;;;18.00;99.60;19.50;97310.00;;;;5032954;28;20212;-66
2022/07/02 00:36:27;;;;;;;0.50;0.40;;;18.00;99.60;19.30;97307.00;;;;5026422;28;20205;-65
2022/07/02 00:39:17;;;;;;;0.83;0.63;;;17.90;99.30;19.50;97313.00;;;;5031902;28;20201;-65
2022/07/02 00:42:10;;;;;;;1.90;0.50;;;17.90;99.50;19.40;97314.00;;;;5031998;28;20205;-64
2022/07/02 00:45:01;;;;;;;0.50;0.30;;;17.90;99.60;19.30;97309.00;;;;5035014;28;20210;-65
2022/07/02 00:47:51;;;;;;;1.70;0.67;;;17.90;99.20;19.20;97306.00;;;;5033295;28;20216;-66
2022/07/02 00:50:40;;;;;;;0.70;0.40;;;17.80;99.70;19.10;97304.00;;;;5035907;28;20231;-66
2022/07/02 00:53:29;;;;;;;0.70;0.60;;;17.70;99.80;19.10;97294.00;;;;5033062;28;20205;-66
2022/07/02 00:56:19;;;;;;;0.70;0.53;;;17.70;99.90;19.30;97304.00;;;;5033539;28;20197;-66
2022/07/02 00:59:08;;;;;;;0.90;0.40;;;17.70;99.90;19.30;97304.00;;;;5027308;28;20205;-66
2022/07/02 01:01:57;;;;;;;1.27;0.70;;;17.70;99.90;19.20;97305.00;;;;5032276;28;20232;-66
2022/07/02 01:04:47;;;;;;;0.40;0.40;;;17.70;99.80;19.00;97310.00;;;;5034852;28;20200;-66
2022/07/02 01:07:37;;;;;;;0.53;0.50;;;17.60;99.90;19.20;97313.00;;;;5032183;28;20216;-66
2022/07/02 01:10:25;;;;;;;1.47;0.57;;;17.60;99.90;19.20;97306.00;;;;5036464;28;20235;-66
2022/07/02 01:13:17;;;;;;;0.63;0.33;;;17.60;99.90;19.20;97305.00;;;;5037703;28;20240;-66
2022/07/02 01:16:06;;;;;;;0.63;0.50;;;17.60;99.90;19.00;97305.00;;;;5034933;28;20197;-66
2022/07/02 01:18:55;;;;;;;0.40;0.40;;;17.60;99.90;19.10;97298.00;;;;5033759;28;20733;-66
2022/07/02 01:22:33;;;;;;;2.33;0.43;;;17.60;99.90;19.00;97301.00;;;;5038884;28;20580;-65
2022/07/02 01:25:23;;;;;;;1.60;0.50;;;17.50;99.90;18.70;97303.00;;;;4942049;28;20211;-66
2022/07/02 01:28:12;;;;;;;0.43;0.43;;;17.40;99.90;18.80;97302.00;;;;5030975;28;20205;-66
2022/07/02 01:31:01;;;;;;;1.10;0.77;;;17.40;99.90;18.90;97299.00;;;;5029434;28;20304;-66
2022/07/02 01:33:50;;;;;;;0.53;0.40;;;17.40;99.90;18.90;97302.00;;;;5037994;28;20197;-66
2022/07/02 01:36:38;;;;;;;0.70;0.50;;;17.40;99.90;18.90;97296.00;;;;5031958;28;20590;-66
2022/07/02 01:39:28;;;;;;;0.90;0.50;;;17.30;99.90;18.90;97289.00;;;;5030514;28;20197;-66
2022/07/02 01:42:18;;;;;;;0.90;0.60;;;17.30;99.90;18.70;97284.00;;;;5032147;28;20213;-66
2022/07/02 01:45:09;;;;;;;1.47;0.47;;;17.30;99.90;18.70;97287.00;;;;5033946;28;20194;-66
2022/07/02 01:47:58;;;;;;;0.40;0.30;;;17.30;99.90;18.70;97282.00;;;;5035138;28;20202;-66
2022/07/02 01:50:47;;;;;;;0.57;0.57;;;17.20;99.90;18.70;97285.00;;;;5031202;28;20228;-66
2022/07/02 01:53:35;;;;;;;3.10;0.80;;;17.20;99.90;18.60;97290.00;;;;5033475;28;20216;-66
2022/07/02 01:56:26;;;;;;;0.97;0.40;;;17.20;99.90;18.50;97291.00;;;;5032629;28;20392;-66
2022/07/02 01:59:14;;;;;;;0.50;0.50;;;17.10;99.90;18.60;97291.00;;;;5031321;28;20732;-66
2022/07/02 02:02:04;;;;;;;0.50;0.50;;;17.10;99.90;18.50;97293.00;;;;5023146;28;20205;-66
2022/07/02 02:04:53;;;;;;;1.27;0.77;;;17.00;99.90;18.60;97296.00;;;;5035139;28;20248;-66
2022/07/02 02:07:42;;;;;;;0.83;0.50;;;17.10;99.90;18.70;97296.00;;;;5038338;28;20200;-66
2022/07/02 02:10:31;;;;;;;1.37;0.80;;;17.10;99.90;18.70;97286.00;;;;5033466;28;20224;-66
2022/07/02 02:13:21;;;;;;;0.50;0.50;;;17.10;99.90;18.60;97288.00;;;;5029814;28;20208;-66
2022/07/02 02:16:10;;;;;;;0.67;0.60;;;17.10;99.90;18.40;97292.00;;;;5032793;28;20216;-67
2022/07/02 02:18:59;;;;;;;0.40;0.40;;;17.00;99.90;18.40;97294.00;;;;5032066;28;20613;-67
2022/07/02 02:21:48;;;;;;;0.43;0.43;;;17.00;99.90;18.40;97287.00;;;;5034365;28;20228;-67
2022/07/02 02:24:37;;;;;;;1.93;0.80;;;17.00;99.90;18.60;97291.00;;;;5040222;28;20216;-67
2022/07/02 02:27:26;;;;;;;0.60;0.60;;;17.10;99.90;18.70;97298.00;;;;5032516;28;20604;-67
2022/07/02 02:30:16;;;;;;;1.43;0.43;;;17.10;99.90;18.60;97296.00;;;;5033088;28;20577;-67
2022/07/02 02:33:05;;;;;;;0.57;0.57;;;17.10;99.90;18.20;97294.00;;;;5033630;28;20205;-67
2022/07/02 02:35:54;;;;;;;0.43;0.43;;;17.00;99.90;18.30;97293.00;;;;5031896;28;20201;-67
2022/07/02 02:38:43;;;;;;;0.80;0.43;;;17.00;99.90;18.60;97292.00;;;;5032605;28;20208;-67
2022/07/02 02:41:32;;;;;;;0.40;0.40;;;17.00;99.90;18.50;97288.00;;;;5030200;28;20237;-67
2022/07/02 02:44:21;;;;;;;0.70;0.60;;;17.00;99.90;18.50;97294.00;;;;5034723;28;20197;-66
2022/07/02 02:47:11;;;;;;;0.53;0.53;;;17.00;99.90;18.20;97291.00;;;;5020654;28;20206;-66
2022/07/02 02:50:00;;;;;;;0.60;0.40;;;17.00;99.90;18.40;97290.00;;;;5031234;28;20225;-66
2022/07/02 02:52:48;;;;;;;0.93;0.50;;;17.00;99.90;18.40;97288.00;;;;5032186;28;20561;-64
2022/07/02 02:55:37;;;;;;;0.73;0.40;;;17.00;99.90;18.60;97287.00;;;;5031310;28;20205;-65
2022/07/02 02:58:26;;;;;;;1.57;0.57;;;17.00;99.90;18.30;97290.00;;;;5030766;28;20204;-63
2022/07/02 03:01:15;;;;;;;0.60;0.60;;;16.90;99.90;18.30;97288.00;;;;5038203;28;20228;-66
2022/07/02 03:04:06;;;;;;;0.60;0.60;;;16.90;99.90;18.40;97299.00;;;;5046790;28;20209;-66
2022/07/02 03:06:55;;;;;;;0.70;0.70;;;16.90;99.90;18.40;97291.00;;;;5022824;28;20213;-66
2022/07/02 03:09:43;;;;;;;0.77;0.47;;;16.90;99.90;18.10;97293.00;;;;5030668;28;20205;-66
2022/07/02 03:12:32;;;;;;;0.87;0.47;;;16.90;99.90;18.10;97310.00;;;;5034942;28;20201;-67
2022/07/02 03:15:21;;;;;;;1.60;0.50;;;16.80;99.90;18.20;97310.00;;;;5031999;28;20205;-66
2022/07/02 03:18:10;;;;;;;1.07;0.80;;;16.80;99.90;18.30;97310.00;;;;5034211;28;20197;-66
2022/07/02 03:21:00;;;;;;;4.07;0.60;;;16.80;99.90;18.20;97319.00;;;;5035582;28;20229;-66
2022/07/02 03:23:49;;;;;;;0.50;0.50;;;16.80;99.90;18.20;97328.00;;;;5040120;28;20205;-66
2022/07/02 03:26:38;;;;;;;0.70;0.67;;;16.80;99.90;18.20;97313.00;;;;5041481;28;20581;-67
2022/07/02 03:29:26;;;;;;;1.17;0.83;;;16.80;99.90;18.00;97314.00;;;;5031722;28;20193;-67
2022/07/02 03:32:16;;;;;;;1.47;0.70;;;16.80;99.90;18.40;97325.00;;;;5033696;28;20201;-67
2022/07/02 03:35:05;;;;;;;0.57;0.57;;;16.80;99.90;18.30;97338.00;;;;5038840;28;20208;-66
2022/07/02 03:37:55;;;;;;;0.93;0.70;;;16.90;99.90;18.40;97328.00;;;;5034698;28;20209;-66
2022/07/02 03:40:44;;;;;;;0.57;0.57;;;16.80;99.90;18.50;97329.00;;;;5033648;28;20232;-66
2022/07/02 03:43:33;;;;;;;0.93;0.77;;;16.90;99.90;18.00;97340.00;;;;5035657;28;20205;-66
2022/07/02 03:46:22;;;;;;;0.70;0.70;;;16.80;99.90;18.50;97341.00;;;;5038831;28;20209;-66
2022/07/02 03:49:11;;;;;;;1.87;1.00;;;16.90;99.90;18.50;97346.00;;;;5034932;28;20692;-66
2022/07/02 03:51:59;;;;;;;1.07;0.93;;;16.90;99.90;18.60;97339.00;;;;5031810;28;20232;-67
2022/07/02 03:54:50;;;;;;;1.43;0.73;;;16.90;99.90;18.60;97344.00;;;;5028260;28;20212;-67
2022/07/02 03:57:38;;;;;;;1.10;0.93;;;17.00;99.90;18.50;97347.00;;;;5033809;28;20593;-66
2022/07/02 04:00:27;;;;;;;0.50;0.50;;;17.00;99.90;18.10;97358.00;;;;5036835;28;20232;-66
2022/07/02 04:03:16;;;;;;;2.63;0.77;;;17.00;99.90;18.60;97356.00;;;;5038625;28;20653;-66
2022/07/02 04:06:05;;;;;;;0.60;0.60;;;17.00;99.90;18.70;97357.00;;;;5034613;28;20205;-65
2022/07/02 04:08:54;;;;;;;1.70;0.80;;;17.10;99.90;18.70;97359.00;;;;5032293;28;20205;-65
2022/07/02 04:11:44;;;;;;;1.73;0.70;;;17.10;99.90;18.70;97360.00;;;;5033991;28;20221;-67
2022/07/02 04:14:33;;;;;;;0.67;0.60;;;17.10;99.90;18.70;97358.00;;;;5021127;28;20197;-67
2022/07/02 04:17:22;;;;;;;0.80;0.53;;;17.20;99.90;18.80;97366.00;;;;5031305;28;20711;-67
2022/07/02 04:20:12;;;;;;;0.90;0.80;;;17.20;99.90;18.70;97377.00;;;;5033142;28;20225;-67
2022/07/02 04:23:00;;;;;;;0.53;0.40;;;17.20;99.90;18.80;97379.00;;;;5032870;28;20692;-67
2022/07/02 04:25:49;;;;;;;0.53;0.53;;;17.20;99.90;18.60;97379.00;;;;5032720;28;20868;-66
2022/07/02 04:28:39;;;;;;;1.20;0.70;;;17.20;99.90;18.80;97376.00;;;;5031894;28;20202;-67
2022/07/02 04:31:28;;;;;;;0.80;0.50;;;17.20;99.90;18.90;97385.00;;;;5023634;28;20232;-67
2022/07/02 04:34:17;;;;;;;0.70;0.70;;;17.30;99.90;18.90;97394.00;;;;5031661;28;20544;-65
2022/07/02 04:37:06;;;;;;;1.47;0.60;;;17.30;99.90;19.00;97400.00;;;;5033690;28;20201;-66
2022/07/02 04:39:55;;;;;;;0.50;0.50;;;17.30;99.90;19.00;97391.00;;;;5034746;28;20624;-66
2022/07/02 04:42:43;;;;;;;1.17;0.60;;;17.40;99.90;19.20;97392.00;;;;5031213;28;20229;-66
2022/07/02 04:45:33;;;;;;;2.53;0.57;;;17.50;99.90;19.00;97391.00;;;;5029694;28;20213;-67
2022/07/02 04:48:22;;;;;;;0.63;0.60;;;17.50;99.90;19.40;97390.00;;;;5029186;28;20206;-67
2022/07/02 04:51:11;;;;;;;2.27;0.57;;;17.60;99.90;19.30;97387.00;;;;5030044;28;21003;-66
2022/07/02 04:54:00;;;;;;;0.60;0.60;;;17.70;99.90;19.60;97397.00;;;;5031258;28;20240;-66
2022/07/02 04:56:49;;;;;;;0.50;0.50;;;17.80;99.90;19.60;97388.00;;;;5030811;28;20667;-66
2022/07/02 04:59:37;;;;;;;0.87;0.50;;;17.90;99.90;19.90;97404.00;;;;5031298;28;20209;-66
2022/07/02 05:02:28;;;;;;;0.83;0.57;;;18.00;99.90;19.50;97393.00;;;;5031020;28;20229;-66
2022/07/02 05:05:16;;;;;;;0.70;0.60;;;18.10;99.90;19.90;97406.00;;;;5032209;28;20224;-66
2022/07/02 05:08:06;;;;;;;1.80;0.60;;;18.20;99.70;20.10;97396.00;;;;5021390;28;20209;-63
2022/07/02 05:10:55;;;;;;;0.50;0.50;;;18.20;99.60;20.20;97395.00;;;;5031439;28;20248;-63
2022/07/02 05:13:43;;;;;;;0.70;0.47;;;18.40;99.50;20.30;97407.00;;;;5031847;28;20208;-65
2022/07/02 05:16:32;;;;;;;0.67;0.67;;;18.50;98.90;20.50;97406.00;;;;5039210;28;20220;-66
2022/07/02 05:19:22;;;;;;;1.90;0.73;;;18.60;98.30;20.60;97411.00;;;;5026648;28;20284;-66
2022/07/02 05:22:12;;;;;;;0.80;0.67;;;18.70;98.70;20.90;97398.00;;;;5030288;28;20390;-66
2022/07/02 05:25:00;;;;;;;1.10;0.53;;;18.80;98.70;20.70;97398.00;;;;5032469;28;20207;-66
2022/07/02 05:27:50;;;;;;;0.63;0.60;;;18.90;97.50;21.00;97409.00;;;;5029888;28;20197;-66
2022/07/02 05:30:38;;;;;;;0.60;0.50;;;19.00;97.60;20.90;97409.00;;;;5037696;28;20240;-66
2022/07/02 05:33:27;;;;;;;1.90;0.57;;;19.10;96.80;21.10;97414.00;;;;5029906;28;20205;-66
2022/07/02 05:36:18;;;;;;;2.03;0.57;;;19.20;97.00;21.40;97425.00;;;;5031258;28;20212;-65
2022/07/02 05:39:06;;;;;;;1.60;0.43;;;19.30;96.70;20.90;97406.00;;;;5030184;28;20208;-65
2022/07/02 05:41:55;;;;;;;1.37;0.70;;;19.40;96.20;21.10;97413.00;;;;5026937;28;20245;-64
2022/07/02 05:44:44;;;;;;;1.80;0.50;;;19.50;96.20;21.50;97416.00;;;;5028665;28;20208;-65
2022/07/02 05:47:33;;;;;;;0.50;0.50;;;19.60;96.00;21.50;97419.00;;;;5024454;28;20711;-66
2022/07/02 05:50:22;;;;;;;0.60;0.50;;;19.70;95.90;21.80;97431.00;;;;5036567;28;20219;-66
2022/07/02 05:53:13;;;;;;;0.60;0.40;;;19.80;95.50;21.90;97432.00;;;;5030921;28;20205;-63
2022/07/02 05:56:02;;;;;;;2.07;0.50;;;19.90;94.80;21.50;97422.00;;;;5030858;28;20205;-64
2022/07/02 05:58:51;;;;;;;0.40;0.30;;;19.90;93.90;21.70;97436.00;;;;5028650;28;20697;-65
2022/07/02 06:01:40;;;;;;;0.60;0.57;;;20.00;93.90;22.10;97432.00;;;;5018388;28;20229;-64
2022/07/02 06:04:28;;;;;;;0.60;0.50;;;20.10;94.40;21.90;97444.00;;;;5027619;28;20948;-65
2022/07/02 06:10:25;;;;;;;0.93;0.40;;;20.30;93.90;22.30;97460.00;;;;5025920;28;20239;-65
2022/07/02 06:13:16;;;;;;;1.13;0.40;;;20.40;93.60;21.90;97455.00;;;;5029692;28;20206;-65
2022/07/02 06:16:05;;;;;;;2.50;0.87;;;20.40;91.80;22.30;97463.00;;;;5031954;28;20219;-65
2022/07/02 06:18:54;;;;;;;0.40;0.40;;;20.00;92.60;21.90;97456.00;;;;5027977;28;20213;-66
2022/07/02 06:21:43;;;;;;;3.70;0.60;;;20.50;91.70;22.30;97464.00;;;;5029134;28;20231;-66
2022/07/02 06:24:32;;;;;;;1.07;0.30;;;20.60;92.50;22.20;97474.00;;;;5029572;28;20198;-66
2022/07/02 06:27:22;;;;;;;0.83;0.60;;;20.60;92.50;22.30;97473.00;;;;5031122;28;20216;-66
2022/07/02 06:30:12;;;;;;;0.33;0.33;;;20.70;91.70;22.60;97470.00;;;;5030896;28;20225;-66
2022/07/02 06:33:01;;;;;;;0.50;0.50;;;20.80;91.50;22.60;97481.00;;;;5025600;28;20217;-65
2022/07/02 06:35:49;;;;;;;0.90;0.40;;;20.90;91.20;22.90;97479.00;;;;5028806;28;20205;-65
2022/07/02 06:38:39;;;;;;;0.30;0.30;;;21.00;90.90;23.20;97477.00;;;;5032365;28;20230;-65
2022/07/02 06:44:37;;;;;;;0.43;0.40;;;21.20;89.30;23.40;97488.00;;;;5030246;28;20208;-65
2022/07/02 06:47:26;;;;;;;0.63;0.40;;;21.30;90.40;23.60;97503.00;;;;5029121;28;20213;-65
2022/07/02 06:50:18;;;;;;;0.40;0.40;;;21.50;90.30;23.00;97495.00;;;;5031825;28;20229;-65
2022/07/02 06:53:07;;;;;;;0.40;0.30;;;21.60;87.80;23.20;97499.00;;;;5028021;28;20592;-66
2022/07/02 06:55:55;;;;;;;0.70;0.50;;;21.60;87.60;23.60;97495.00;;;;5029951;28;20206;-66
2022/07/02 06:58:44;;;;;;;0.50;0.50;;;21.70;87.80;23.80;97502.00;;;;5038096;28;20200;-65
2022/07/02 07:01:34;;;;;;;0.97;0.40;;;21.80;86.80;24.00;97496.00;;;;5024548;28;20224;-66
2022/07/02 07:04:27;;;;;;;0.57;0.33;;;21.90;86.20;23.70;97503.00;;;;5033651;28;20232;-65
2022/07/02 07:07:17;;;;;;;0.30;0.30;;;22.00;84.00;23.90;97512.00;;;;5028487;28;20618;-65
2022/07/02 07:10:06;;;;;;;0.60;0.40;;;22.00;83.40;22.90;97495.00;;;;5038747;28;20224;-66
2022/07/02 07:12:55;;;;;;;0.53;0.50;;;22.00;82.70;23.40;97495.00;;;;5029539;28;20649;-66
2022/07/02 07:15:44;;;;;;;0.20;0.20;;;21.90;84.40;23.80;97497.00;;;;5030503;28;20584;-66
2022/07/02 07:18:34;;;;;;;0.47;0.40;;;22.00;84.20;23.80;97500.00;;;;5022807;28;20239;-67
2022/07/02 07:21:23;;;;;;;0.40;0.30;;;22.10;84.40;24.10;97498.00;;;;5030236;28;20221;-67
2022/07/02 07:24:12;;;;;;;1.87;0.80;;;22.20;85.30;24.50;97510.00;;;;5030068;28;20229;-67
2022/07/02 07:27:01;;;;;;;0.53;0.30;;;22.30;83.70;24.70;97505.00;;;;5033656;28;20196;-66
2022/07/02 07:29:50;;;;;;;0.87;0.37;;;22.50;83.50;24.90;97499.00;;;;5029299;28;20568;-66
2022/07/02 07:32:39;;;;;;;2.60;0.50;;;22.70;83.80;24.80;97504.00;;;;5028608;28;20201;-66
2022/07/02 07:35:29;;;;;;;0.80;0.47;;;22.80;82.40;25.20;97516.00;;;;5031068;28;20193;-66
2022/07/02 07:38:18;;;;;;;0.93;0.50;;;23.00;82.50;25.40;97503.00;;;;5028814;28;20217;-66
2022/07/02 07:41:07;;;;;;;0.77;0.43;;;23.10;83.80;24.50;97504.00;;;;5027881;28;20244;-65
2022/07/02 07:43:56;;;;;;;0.60;0.50;;;23.20;79.50;25.10;97510.00;;;;5024384;28;20217;-67
2022/07/02 07:46:45;;;;;;;0.30;0.20;;;23.10;80.20;25.10;97511.00;;;;5021720;28;20213;-66
2022/07/02 07:49:35;;;;;;;2.97;0.70;;;23.20;80.00;25.40;97503.00;;;;5028352;28;20201;-65
2022/07/02 07:52:25;;;;;;;2.10;0.60;;;23.30;81.70;25.70;97510.00;;;;5026267;28;20194;-65
2022/07/02 07:55:13;;;;;;;1.07;0.53;;;23.50;80.30;26.00;97510.00;;;;5028068;28;20665;-66
2022/07/02 07:58:02;;;;;;;1.37;0.60;;;23.70;79.40;25.80;97510.00;;;;5027226;28;20190;-65
2022/07/02 08:00:52;;;;;;;3.83;0.60;;;23.70;78.90;26.00;97504.00;;;;5026112;28;20233;-64
2022/07/02 08:03:42;;;;;;;0.97;0.43;;;23.90;78.30;26.20;97501.00;;;;5032840;28;20236;-64
2022/07/02 08:06:31;;;;;;;0.40;0.40;;;24.10;78.80;26.30;97499.00;;;;5029456;28;20220;-65
2022/07/02 08:09:21;;;;;;;0.50;0.40;;;24.20;78.50;26.00;97504.00;;;;5031849;28;20284;-66
2022/07/02 08:12:10;;;;;;;1.80;0.50;;;24.20;76.60;26.50;97512.00;;;;5036042;28;20209;-66
2022/07/02 08:15:00;;;;;;;0.70;0.40;;;24.30;76.90;25.30;97500.00;;;;5025292;28;21893;-66
2022/07/02 08:17:49;;;;;;;0.60;0.50;;;24.20;74.00;25.90;97495.00;;;;5025494;28;20235;-66
2022/07/02 08:20:38;;;;;;;0.40;0.40;;;24.20;76.20;26.50;97496.00;;;;5025501;28;20244;-66
2022/07/02 08:23:29;;;;;;;0.70;0.50;;;24.30;76.10;26.30;97496.00;;;;5024110;28;20221;-66
2022/07/02 08:26:19;;;;;;;0.50;0.50;;;24.40;75.70;26.00;97493.00;;;;5024240;28;20201;-66
2022/07/02 08:29:09;;;;;;;1.70;0.57;;;24.40;72.90;26.50;97485.00;;;;5024358;28;20341;-66
2022/07/02 08:31:58;;;;;;;1.70;0.73;;;24.50;74.80;26.80;97486.00;;;;5023908;28;20223;-66
2022/07/02 08:34:47;;;;;;;1.07;0.50;;;24.60;74.40;27.10;97490.00;;;;5026828;28;20212;-65
2022/07/02 08:37:35;;;;;;;2.10;0.83;;;24.80;74.80;27.40;97489.00;;;;5028409;28;20203;-65
2022/07/02 08:40:26;;;;;;;0.87;0.43;;;25.00;74.80;26.50;97492.00;;;;5026790;28;20241;-66
2022/07/02 08:43:17;;;;;;;1.77;0.60;;;25.10;72.70;26.60;97486.00;;;;5030305;28;20685;-65
2022/07/02 08:46:07;;;;;;;1.03;0.50;;;25.10;70.30;27.20;97496.00;;;;5026153;28;20229;-66
2022/07/02 08:48:58;;;;;;;1.33;0.43;;;25.20;71.10;27.30;97491.00;;;;5026574;28;20220;-66
2022/07/02 08:51:50;;;;;;;0.60;0.50;;;25.30;68.90;27.40;97495.00;;;;5027268;28;20237;-66
2022/07/02 08:54:39;;;;;;;0.87;0.47;;;25.40;70.60;28.00;97500.00;;;;5029299;28;20197;-66
2022/07/02 08:57:30;;;;;;;2.10;0.83;;;25.50;71.90;28.20;97495.00;;;;5026092;28;20281;-65
2022/07/02 09:00:23;;;;;;;0.40;0.40;;;25.70;71.20;27.60;97490.00;;;;5029343;28;20273;-64
2022/07/02 09:03:20;;;;;;;1.37;0.40;;;25.80;67.70;27.80;97487.00;;;;5023843;28;21489;-66
2022/07/02 09:06:10;;;;;;;1.50;1.40;;;25.80;69.90;27.50;97478.00;;;;5023302;28;20604;-65
2022/07/02 09:08:59;;;;;;;0.70;0.70;;;25.70;69.40;27.20;97483.00;;;;5031436;28;20215;-65
2022/07/02 09:11:49;;;;;;;1.43;0.97;;;25.80;66.00;27.40;97487.00;;;;5030018;28;20223;-65
2022/07/02 09:14:38;;;;;;;0.53;0.53;;;25.80;65.40;27.70;97477.00;;;;5028265;28;20199;-65
2022/07/02 09:17:28;;;;;;;1.00;0.30;;;25.80;66.90;28.00;97480.00;;;;5028660;28;20207;-65
2022/07/02 09:20:17;;;;;;;0.80;0.40;;;26.00;67.50;28.60;97474.00;;;;5031499;28;20603;-66
2022/07/02 09:23:10;;;;;;;1.27;0.60;;;26.10;69.50;28.90;97476.00;;;;5028746;28;20583;-65
2022/07/02 09:26:03;;;;;;;0.40;0.40;;;26.30;70.00;29.00;97476.00;;;;5029917;28;20636;-66
2022/07/02 09:28:56;;;;;;;0.50;0.50;;;26.60;69.40;29.10;97480.00;;;;5026304;28;20610;-65
2022/07/02 09:31:51;;;;;;;1.80;0.47;;;26.80;67.70;28.90;97484.00;;;;5029453;28;20710;-65
2022/07/02 09:34:45;;;;;;;2.30;0.40;;;26.90;67.90;29.20;97475.00;;;;5029252;28;20594;-65
2022/07/02 09:37:34;;;;;;;0.60;0.50;;;27.10;67.40;29.20;97482.00;;;;5029214;28;20490;-65
2022/07/02 09:40:23;;;;;;;0.87;0.43;;;27.10;66.40;29.00;97475.00;;;;5023868;28;20717;-66
2022/07/02 09:43:12;;;;;;;0.60;0.47;;;27.10;66.90;29.40;97475.00;;;;5027386;28;20209;-66
2022/07/02 09:46:01;;;;;;;0.40;0.40;;;27.20;66.70;29.50;97468.00;;;;5030210;28;20694;-64
2022/07/02 09:48:50;;;;;;;1.27;0.50;;;27.40;67.10;28.30;97473.00;;;;5027560;28;20557;-65
2022/07/02 09:51:49;;;;;;;0.40;0.40;;;27.20;61.50;28.90;97472.00;;;;5027352;28;20720;-65
2022/07/02 09:54:38;;;;;;;0.67;0.67;;;27.10;62.80;29.60;97463.00;;;;5029563;28;20210;-65
2022/07/02 09:57:28;;;;;;;0.60;0.30;;;27.20;63.30;29.30;97470.00;;;;5026251;28;20640;-61
2022/07/02 10:00:18;;;;;;;2.37;0.50;;;27.40;61.60;30.10;97453.00;;;;5030686;28;20237;-63
2022/07/02 10:03:07;;;;;;;1.43;0.30;;;27.60;62.70;30.50;97458.00;;;;5029166;28;20230;-64
2022/07/02 10:05:56;;;;;;;0.77;0.50;;;27.80;63.40;30.90;97461.00;;;;5032376;28;20258;-64
2022/07/02 10:08:46;;;;;;;0.57;0.47;;;28.10;63.20;30.20;97454.00;;;;5028090;28;20214;-65
2022/07/02 10:11:37;;;;;;;0.40;0.40;;;28.30;58.60;30.00;97456.00;;;;5027075;28;20242;-64
2022/07/02 10:14:29;;;;;;;0.77;0.40;;;28.40;60.80;30.60;97453.00;;;;5025316;28;20208;-66
2022/07/02 10:17:18;;;;;;;0.33;0.33;;;28.40;60.20;31.40;97448.00;;;;5029953;28;20205;-66
2022/07/02 10:20:09;;;;;;;1.47;0.50;;;28.60;60.30;31.60;97444.00;;;;5027932;28;20709;-65
2022/07/02 10:23:01;;;;;;;0.57;0.57;;;28.90;60.30;30.40;97449.00;;;;5029670;28;20209;-66
2022/07/02 10:25:53;;;;;;;0.50;0.50;;;28.90;57.50;30.60;97436.00;;;;5019576;28;20250;-66
2022/07/02 10:28:42;;;;;;;0.50;0.33;;;28.90;59.20;31.20;97438.00;;;;5020043;28;20213;-62
2022/07/02 10:31:37;;;;;;;2.23;0.50;;;29.00;59.30;32.00;97437.00;;;;5029439;28;20226;-63
2022/07/02 10:34:47;;;;;;;0.50;0.50;;;29.20;60.60;31.70;97435.00;;;;5022698;28;20204;-63
2022/07/02 10:37:39;;;;;;;2.00;0.40;;;29.50;59.30;31.30;97426.00;;;;5028828;28;20210;-64
2022/07/02 10:40:28;;;;;;;0.87;0.40;;;29.60;58.40;31.30;97421.00;;;;5027250;28;20286;-64
2022/07/02 10:43:20;;;;;;;0.50;0.40;;;29.50;57.90;32.30;97419.00;;;;5023580;28;20214;-64
2022/07/02 10:46:13;;;;;;;0.40;0.40;;;29.70;58.10;31.20;97409.00;;;;5030019;28;20229;-64
2022/07/02 10:49:04;;;;;;;0.70;0.53;;;29.80;55.90;29.40;97408.00;;;;5028430;28;20208;-66
2022/07/02 10:51:58;;;;;;;0.43;0.40;;;29.50;53.20;30.80;97412.00;;;;5029478;28;20227;-67
2022/07/02 10:54:46;;;;;;;0.63;0.53;;;29.40;55.50;30.00;97405.00;;;;5029709;28;20218;-67
2022/07/02 10:57:35;;;;;;;1.23;0.50;;;29.20;53.80;31.20;97400.00;;;;5024179;28;20856;-67
2022/07/02 11:00:31;;;;;;;1.60;0.70;;;29.10;54.40;32.20;97399.00;;;;5029438;28;20598;-67
2022/07/02 11:03:23;;;;;;;1.20;1.13;;;29.30;56.60;32.70;97400.00;;;;5026456;28;20222;-67
2022/07/02 11:06:22;;;;;;;0.50;0.50;;;29.60;57.00;32.80;97399.00;;;;5028077;28;20240;-67
2022/07/02 11:09:10;;;;;;;0.70;0.40;;;30.00;57.50;32.80;97385.00;;;;5029639;28;20208;-67
2022/07/02 11:12:01;;;;;;;1.00;0.60;;;30.20;55.30;31.90;97386.00;;;;5029624;28;20236;-67
2022/07/02 11:14:56;;;;;;;1.50;0.60;;;30.30;54.20;33.00;97381.00;;;;5024821;28;20287;-66
2022/07/02 11:18:08;;;;;;;0.30;0.30;;;30.50;55.60;31.90;97382.00;;;;5021690;28;20210;-67
2022/07/02 11:20:57;;;;;;;0.50;0.50;;;30.40;54.40;32.70;97377.00;;;;5028096;28;20231;-66
2022/07/02 11:23:46;;;;;;;0.93;0.60;;;30.60;54.50;31.40;97378.00;;;;5025994;28;20211;-67
2022/07/02 11:26:36;;;;;;;0.75;0.50;;;30.50;52.20;32.90;97370.00;;;;5028075;28;20236;-67
2022/07/02 11:29:25;;;;;;;0.40;0.40;;;30.60;52.40;31.90;97368.00;;;;5029563;28;20207;-67
2022/07/02 11:32:14;;;;;;;0.70;0.70;;;30.50;53.60;30.90;97365.00;;;;5023450;28;20200;-67
2022/07/02 11:35:05;;;;;;;0.77;0.77;;;30.20;56.80;33.00;97369.00;;;;5026381;28;20201;-66
2022/07/02 11:37:58;;;;;;;0.85;0.70;;;30.40;56.30;32.80;97361.00;;;;5027824;28;20578;-66
2022/07/02 11:40:48;;;;;;;0.70;0.45;;;30.60;55.90;33.40;97368.00;;;;5029892;28;20268;-67
2022/07/02 11:43:37;;;;;;;0.82;0.80;;;30.80;55.70;33.60;97359.00;;;;5032323;28;20212;-67
2022/07/02 11:46:27;;;;;;;1.38;0.50;;;31.00;54.00;34.30;97354.00;;;;5032637;28;20719;-67
2022/07/02 11:49:19;;;;;;;4.03;0.82;;;31.30;55.80;34.00;97358.00;;;;5033621;28;20288;-67
2022/07/02 11:52:10;;;;;;;0.65;0.65;;;31.50;55.40;33.60;97357.00;;;;5031230;28;22376;-67
2022/07/02 11:54:59;;;;;;;0.60;0.60;;;31.60;53.50;34.00;97354.00;;;;5031039;28;20204;-67
2022/07/02 11:57:52;;;;;;;0.60;0.60;;;31.60;52.80;32.00;97362.00;;;;5027950;28;20197;-68
2022/07/02 12:00:41;;;;;;;1.52;0.75;;;31.20;54.30;33.00;97365.00;;;;5034708;28;20224;-68
2022/07/02 12:03:30;;;;;;;0.77;0.75;;;31.20;54.50;33.30;97358.00;;;;5031842;28;20706;-66
2022/07/02 12:06:19;;;;;;;0.70;0.65;;;31.30;52.90;33.00;97363.00;;;;5030245;28;20232;-68
2022/07/02 12:09:10;;;;;;;0.57;0.57;;;31.40;54.00;34.40;97362.00;;;;5030573;28;20208;-68
2022/07/02 12:11:59;;;;;;;1.05;0.65;;;31.60;55.60;34.00;97357.00;;;;5030078;28;20722;-68
2022/07/02 12:14:51;;;;;;;3.03;1.02;;;31.70;55.10;34.40;97353.00;;;;5033342;28;20220;-68
2022/07/02 12:17:47;;;;;;;4.35;1.08;;;31.90;55.60;33.80;97356.00;;;;5032898;28;20203;-68
2022/07/02 12:20:36;;;;;;;1.15;1.10;;;31.90;54.60;34.20;97357.00;;;;5029818;28;20230;-67
2022/07/02 12:23:25;;;;;;;1.23;0.77;;;32.00;54.70;34.40;97354.00;;;;5028404;28;20209;-66
2022/07/02 12:26:23;;;;;;;1.25;0.80;;;32.10;54.50;33.30;97353.00;;;;5028825;28;20227;-68
2022/07/02 12:32:22;;;;;;;1.75;0.70;;;32.20;55.50;34.40;97356.00;;;;5029453;28;20730;-66
2022/07/02 12:35:11;;;;;;;1.38;0.80;;;32.50;56.00;33.70;97352.00;;;;5030124;28;20205;-68
2022/07/02 12:38:00;;;;;;;1.00;0.90;;;32.50;55.20;32.90;97349.00;;;;5028940;28;20227;-68
2022/07/02 12:41:00;;;;;;;0.55;0.55;;;32.40;55.50;35.00;97342.00;;;;5031739;28;20731;-68
2022/07/02 12:43:56;;;;;;;0.50;0.50;;;32.50;56.40;35.80;97338.00;;;;5030185;28;20212;-68
2022/07/02 12:46:47;;;;;;;1.40;0.70;;;32.70;55.70;36.10;97338.00;;;;5031092;28;20217;-66